KUKT

Details ICAO KUKT
Name Quakertown Airport
Region United States
Timezone America/New_York (UTC-5.0)
Plans Departing 4
Arriving 2
Stats Elevation 524 ft / 160 m (AMSL)
Location 40.435145° -75.381936°
Runways 1
Magnetic Variation 12.110° W
Sunrise 2017-12-10 12:15:23 UTC / 2017-12-10 07:15:23 Local
Sunset 2017-12-10 21:36:23 UTC / 2017-12-10 16:36:23 Local
Advertisement - Login to hide

Runways

ID Width Length Bearing (true) Bearing (mag) Surface Threshold Offset Overrun Length
11 76 ft / 23 m 3,212 ft / 979 m 98.81° 110.92° Asphalt 0 ft / 0 m 0 ft / 0 m
29 76 ft / 23 m 3,212 ft / 979 m 278.82° 290.93° Asphalt 190 ft / 58 m 0 ft / 0 m

Map

Weather


0- 5 10 15 20 25 30 35+ Temperature / ° C

Clouds and Precipitation
Forecast for 2017-12-11 06:00 UTC. Updated an hour ago

Ground ~20,000 ft ~40,000 ft Winds

METAR

KUKT 110215Z AUTO 22005KT 10SM OVC090 00/M06 A3001 RMK AO1

TAF

Not found

Frequencies

Recorded 119.47 MHz WX AWOS-3
Clearance 118.55 MHz CLNC DEL
Unicom 122.72 MHz CTAF/UNICOM
Approach 123.80 MHz PHILADELPHIA APP/DEP
Warning: Do not use this data for real-world aviation or navigation. No guarantee of current accuracy is given.